To NAV CANADA Home Page Login to a new session Search on AWWS site Feedback and Comments Disclaimer Vers la page française équivalente Tips FAQ What's new on the site To the Forecasts and Observations / NOTAM section To "File a Flight Plan" website Publications and other links Update of the User's profile FIC Telephone Numbers My Weather Data Folder Route Weather Data Regional Weather Data Local Weather Data To the Forecasts and Observations / NOTAM section
Request Generated 02/24/2017 at 03:37:32 UTC . Weather information available at that time is displayed.

METAR/TAF

CLYDE RIVER/NU    (show WxCam)

SPECI CYCY 240325Z AUTO 32021KT 1SM HZ BKN025 BKN035 M26/M29 A2981
RMK SLP101=
SPECI CYCY 240319Z AUTO 32021KT 1SM HZ BKN023 OVC035 M26/M29 A2981
RMK SLP101=
SPECI CYCY 240314Z AUTO 32020G25KT 1SM HZ BKN027 OVC035 M26/M29 A2981
RMK SLP100=
METAR CYCY 240300Z AUTO 32022G27KT 3/4SM -SN BLSN FEW017 OVC027
M26/M29 A2981 RMK SLP101=
SPECI CYCY 240246Z AUTO 32023G29KT 3/4SM -SN BLSN FEW017 OVC025
M26/M29 A2981 RMK SLP100=
METAR CYCY 240200Z AUTO 32024KT 3/4SM -SN BLSN FEW003 BKN021 OVC027
M26/M29 A2981 RMK SLP100=
SPECI CYCY 240143Z AUTO 32024KT 3/4SM -SN BLSN BKN023 BKN033 M26/M29
A2981 RMK SLP102=
SPECI CYCY 240135Z AUTO 32022G28KT 3/4SM -SN BLSN FEW019 BKN025
OVC033 M26/M29 A2981 RMK SLP102=
SPECI CYCY 240104Z AUTO 32022G27KT 3/4SM -SN BLSN OVC023 M26/M29
A2982 RMK SLP103=
SPECI CYCY 240101Z AUTO 32021G27KT 3/4SM -SN OVC025 M26/M29 A2982 RMK
SLP103=
METAR CYCY 240100Z AUTO 32021G27KT 3/4SM -SN BLSN BKN021 OVC025
M26/M29 A2982 RMK SLP104=
SPECI CYCY 240059Z AUTO 32022G27KT 3/4SM -SN BLSN BKN021 OVC025
M26/M29 A2982 RMK SLP104=

TAF AMD CYCY 240215Z 2402/2413 32025KT 3/4SM -SN BLSN VV003 TEMPO
2402/2413 2SM HZ OVC030
RMK FCST BASED ON AUTO OBS. NXT FCST BY 240700Z=
Your time UTC time
Weather data provided by Environment Canada and NAV CANADA